sensor_id;sensor_type;location;lat;lon;timestamp;temperature;humidity
59505;DHT22;45321;53.200;5.814;2024-03-29T00:00:43;10.00;68.80
59505;DHT22;45321;53.200;5.814;2024-03-29T00:03:12;10.00;68.80
59505;DHT22;45321;53.200;5.814;2024-03-29T00:05:38;10.00;68.70
59505;DHT22;45321;53.200;5.814;2024-03-29T00:08:04;10.00;68.70
59505;DHT22;45321;53.200;5.814;2024-03-29T00:10:30;10.00;68.60
59505;DHT22;45321;53.200;5.814;2024-03-29T00:12:56;10.00;68.60
59505;DHT22;45321;53.200;5.814;2024-03-29T00:15:22;10.00;68.50
59505;DHT22;45321;53.200;5.814;2024-03-29T00:17:47;10.00;68.50
59505;DHT22;45321;53.200;5.814;2024-03-29T00:20:13;10.00;68.40
59505;DHT22;45321;53.200;5.814;2024-03-29T00:22:39;10.00;68.50
59505;DHT22;45321;53.200;5.814;2024-03-29T00:25:05;10.10;68.30
59505;DHT22;45321;53.200;5.814;2024-03-29T00:27:31;10.00;68.20
59505;DHT22;45321;53.200;5.814;2024-03-29T00:29:58;10.00;68.10
59505;DHT22;45321;53.200;5.814;2024-03-29T00:32:24;10.10;68.20
59505;DHT22;45321;53.200;5.814;2024-03-29T00:34:51;10.00;68.20
59505;DHT22;45321;53.200;5.814;2024-03-29T00:37:18;10.00;68.30
59505;DHT22;45321;53.200;5.814;2024-03-29T00:39:44;10.10;68.30
59505;DHT22;45321;53.200;5.814;2024-03-29T00:42:09;10.10;68.20
59505;DHT22;45321;53.200;5.814;2024-03-29T00:44:38;10.10;68.40
59505;DHT22;45321;53.200;5.814;2024-03-29T00:47:04;10.00;68.50
59505;DHT22;45321;53.200;5.814;2024-03-29T00:49:30;10.10;68.60
59505;DHT22;45321;53.200;5.814;2024-03-29T00:51:56;10.00;68.60
59505;DHT22;45321;53.200;5.814;2024-03-29T00:54:22;10.00;68.90
59505;DHT22;45321;53.200;5.814;2024-03-29T00:56:49;10.00;69.10
59505;DHT22;45321;53.200;5.814;2024-03-29T00:59:15;10.00;69.10
59505;DHT22;45321;53.200;5.814;2024-03-29T01:01:41;10.00;69.20
59505;DHT22;45321;53.200;5.814;2024-03-29T01:04:07;9.90;69.10
59505;DHT22;45321;53.200;5.814;2024-03-29T01:06:33;10.00;69.20
59505;DHT22;45321;53.200;5.814;2024-03-29T01:09:00;9.90;69.20
59505;DHT22;45321;53.200;5.814;2024-03-29T01:11:26;9.90;69.40
59505;DHT22;45321;53.200;5.814;2024-03-29T01:13:52;9.90;69.40
59505;DHT22;45321;53.200;5.814;2024-03-29T01:16:18;9.90;69.50
59505;DHT22;45321;53.200;5.814;2024-03-29T01:18:44;9.80;69.50
59505;DHT22;45321;53.200;5.814;2024-03-29T01:21:13;9.90;69.60
59505;DHT22;45321;53.200;5.814;2024-03-29T01:23:44;9.90;69.70
59505;DHT22;45321;53.200;5.814;2024-03-29T01:26:10;9.80;69.80
59505;DHT22;45321;53.200;5.814;2024-03-29T01:28:39;9.80;69.90
59505;DHT22;45321;53.200;5.814;2024-03-29T01:31:05;9.80;70.00
59505;DHT22;45321;53.200;5.814;2024-03-29T01:33:31;9.80;70.10
59505;DHT22;45321;53.200;5.814;2024-03-29T01:36:04;9.80;70.20
59505;DHT22;45321;53.200;5.814;2024-03-29T01:38:30;9.80;70.30
59505;DHT22;45321;53.200;5.814;2024-03-29T01:40:55;9.70;70.20
59505;DHT22;45321;53.200;5.814;2024-03-29T01:43:21;9.70;70.30
59505;DHT22;45321;53.200;5.814;2024-03-29T01:45:48;9.70;70.50
59505;DHT22;45321;53.200;5.814;2024-03-29T01:48:16;9.60;70.60
59505;DHT22;45321;53.200;5.814;2024-03-29T01:50:43;9.60;70.70
59505;DHT22;45321;53.200;5.814;2024-03-29T01:53:09;9.60;70.80
59505;DHT22;45321;53.200;5.814;2024-03-29T01:55:35;9.50;70.80
59505;DHT22;45321;53.200;5.814;2024-03-29T01:58:02;9.50;70.80
59505;DHT22;45321;53.200;5.814;2024-03-29T02:00:28;9.30;70.80
59505;DHT22;45321;53.200;5.814;2024-03-29T02:02:54;9.40;71.00
59505;DHT22;45321;53.200;5.814;2024-03-29T02:05:21;9.30;70.90
59505;DHT22;45321;53.200;5.814;2024-03-29T02:07:47;9.30;71.00
59505;DHT22;45321;53.200;5.814;2024-03-29T02:10:14;9.30;70.80
59505;DHT22;45321;53.200;5.814;2024-03-29T02:12:41;9.30;70.90
59505;DHT22;45321;53.200;5.814;2024-03-29T02:15:07;9.30;70.80
59505;DHT22;45321;53.200;5.814;2024-03-29T02:17:33;9.30;70.80
59505;DHT22;45321;53.200;5.814;2024-03-29T02:19:59;9.30;70.80
59505;DHT22;45321;53.200;5.814;2024-03-29T02:22:25;9.30;70.80
59505;DHT22;45321;53.200;5.814;2024-03-29T02:24:54;9.30;71.00
59505;DHT22;45321;53.200;5.814;2024-03-29T02:27:21;9.20;71.30
59505;DHT22;45321;53.200;5.814;2024-03-29T02:29:47;9.10;71.40
59505;DHT22;45321;53.200;5.814;2024-03-29T02:32:12;9.00;71.50
59505;DHT22;45321;53.200;5.814;2024-03-29T02:34:38;9.00;71.60
59505;DHT22;45321;53.200;5.814;2024-03-29T02:37:04;8.90;71.80
59505;DHT22;45321;53.200;5.814;2024-03-29T02:39:30;8.90;71.90
59505;DHT22;45321;53.200;5.814;2024-03-29T02:41:56;8.90;71.90
59505;DHT22;45321;53.200;5.814;2024-03-29T02:44:21;8.90;71.90
59505;DHT22;45321;53.200;5.814;2024-03-29T02:46:47;8.90;72.00
59505;DHT22;45321;53.200;5.814;2024-03-29T02:49:13;8.90;72.10
59505;DHT22;45321;53.200;5.814;2024-03-29T02:51:39;8.90;72.00
59505;DHT22;45321;53.200;5.814;2024-03-29T02:54:04;8.90;71.90
59505;DHT22;45321;53.200;5.814;2024-03-29T02:56:30;8.90;72.00
59505;DHT22;45321;53.200;5.814;2024-03-29T02:58:56;8.90;72.00
59505;DHT22;45321;53.200;5.814;2024-03-29T03:01:21;8.90;72.00
59505;DHT22;45321;53.200;5.814;2024-03-29T03:03:47;9.00;71.90
59505;DHT22;45321;53.200;5.814;2024-03-29T03:06:13;9.00;71.90
59505;DHT22;45321;53.200;5.814;2024-03-29T03:08:38;9.00;72.00
59505;DHT22;45321;53.200;5.814;2024-03-29T03:11:22;9.00;72.00
59505;DHT22;45321;53.200;5.814;2024-03-29T03:13:48;9.00;72.10
59505;DHT22;45321;53.200;5.814;2024-03-29T03:16:14;9.00;72.00
59505;DHT22;45321;53.200;5.814;2024-03-29T03:18:40;9.00;72.20
59505;DHT22;45321;53.200;5.814;2024-03-29T03:21:05;9.00;72.20
59505;DHT22;45321;53.200;5.814;2024-03-29T03:23:31;9.00;72.30
59505;DHT22;45321;53.200;5.814;2024-03-29T03:26:02;9.00;72.30
59505;DHT22;45321;53.200;5.814;2024-03-29T03:28:30;9.00;72.20
59505;DHT22;45321;53.200;5.814;2024-03-29T03:30:56;9.00;72.20
59505;DHT22;45321;53.200;5.814;2024-03-29T03:33:22;9.00;72.10
59505;DHT22;45321;53.200;5.814;2024-03-29T03:35:48;9.10;72.10
59505;DHT22;45321;53.200;5.814;2024-03-29T03:38:15;9.00;72.00
59505;DHT22;45321;53.200;5.814;2024-03-29T03:40:41;9.00;72.00
59505;DHT22;45321;53.200;5.814;2024-03-29T03:43:08;9.10;72.00
59505;DHT22;45321;53.200;5.814;2024-03-29T03:45:38;9.10;72.00
59505;DHT22;45321;53.200;5.814;2024-03-29T03:48:05;9.00;72.00
59505;DHT22;45321;53.200;5.814;2024-03-29T03:50:31;9.00;72.10
59505;DHT22;45321;53.200;5.814;2024-03-29T03:52:57;9.00;72.10
59505;DHT22;45321;53.200;5.814;2024-03-29T03:55:24;9.00;72.10
59505;DHT22;45321;53.200;5.814;2024-03-29T03:57:49;9.00;72.00
59505;DHT22;45321;53.200;5.814;2024-03-29T04:00:16;9.00;72.10
59505;DHT22;45321;53.200;5.814;2024-03-29T04:02:49;9.00;72.00
59505;DHT22;45321;53.200;5.814;2024-03-29T04:05:19;9.00;72.00
59505;DHT22;45321;53.200;5.814;2024-03-29T04:07:46;9.00;71.90
59505;DHT22;45321;53.200;5.814;2024-03-29T04:10:12;9.00;71.90
59505;DHT22;45321;53.200;5.814;2024-03-29T04:12:38;9.00;71.90
59505;DHT22;45321;53.200;5.814;2024-03-29T04:15:04;9.00;71.90
59505;DHT22;45321;53.200;5.814;2024-03-29T04:17:31;9.10;71.80
59505;DHT22;45321;53.200;5.814;2024-03-29T04:19:57;9.00;71.90
59505;DHT22;45321;53.200;5.814;2024-03-29T04:22:23;9.00;71.90
59505;DHT22;45321;53.200;5.814;2024-03-29T04:24:49;9.00;71.90
59505;DHT22;45321;53.200;5.814;2024-03-29T04:27:15;9.10;71.90
59505;DHT22;45321;53.200;5.814;2024-03-29T04:29:41;9.00;71.80
59505;DHT22;45321;53.200;5.814;2024-03-29T04:32:06;9.10;71.80
59505;DHT22;45321;53.200;5.814;2024-03-29T04:34:33;9.10;71.80
59505;DHT22;45321;53.200;5.814;2024-03-29T04:36:59;9.00;71.80
59505;DHT22;45321;53.200;5.814;2024-03-29T04:39:25;9.10;71.70
59505;DHT22;45321;53.200;5.814;2024-03-29T04:41:50;9.10;71.60
59505;DHT22;45321;53.200;5.814;2024-03-29T04:44:27;9.20;71.40
59505;DHT22;45321;53.200;5.814;2024-03-29T04:46:53;9.20;71.20
59505;DHT22;45321;53.200;5.814;2024-03-29T04:49:21;9.30;71.00
59505;DHT22;45321;53.200;5.814;2024-03-29T04:51:49;9.30;70.80
59505;DHT22;45321;53.200;5.814;2024-03-29T04:54:17;9.30;70.50
59505;DHT22;45321;53.200;5.814;2024-03-29T04:56:43;9.30;70.50
59505;DHT22;45321;53.200;5.814;2024-03-29T04:59:09;9.30;70.50
59505;DHT22;45321;53.200;5.814;2024-03-29T05:01:39;9.30;70.50
59505;DHT22;45321;53.200;5.814;2024-03-29T05:04:05;9.40;70.40
59505;DHT22;45321;53.200;5.814;2024-03-29T05:06:31;9.40;70.30
59505;DHT22;45321;53.200;5.814;2024-03-29T05:08:57;9.40;70.00
59505;DHT22;45321;53.200;5.814;2024-03-29T05:11:22;9.40;69.90
59505;DHT22;45321;53.200;5.814;2024-03-29T05:13:48;9.40;69.90
59505;DHT22;45321;53.200;5.814;2024-03-29T05:16:14;9.50;69.70
59505;DHT22;45321;53.200;5.814;2024-03-29T05:18:40;9.50;69.60
59505;DHT22;45321;53.200;5.814;2024-03-29T05:21:06;9.50;69.40
59505;DHT22;45321;53.200;5.814;2024-03-29T05:23:32;9.50;69.50
59505;DHT22;45321;53.200;5.814;2024-03-29T05:25:57;9.50;69.70
59505;DHT22;45321;53.200;5.814;2024-03-29T05:28:23;9.50;69.70
59505;DHT22;45321;53.200;5.814;2024-03-29T05:30:49;9.50;69.90
59505;DHT22;45321;53.200;5.814;2024-03-29T05:33:14;9.50;69.70
59505;DHT22;45321;53.200;5.814;2024-03-29T05:35:41;9.40;69.70
59505;DHT22;45321;53.200;5.814;2024-03-29T05:38:07;9.50;69.80
59505;DHT22;45321;53.200;5.814;2024-03-29T05:40:35;9.50;69.80
59505;DHT22;45321;53.200;5.814;2024-03-29T05:43:03;9.50;70.20
59505;DHT22;45321;53.200;5.814;2024-03-29T05:45:30;9.40;70.70
59505;DHT22;45321;53.200;5.814;2024-03-29T05:47:57;9.40;70.70
59505;DHT22;45321;53.200;5.814;2024-03-29T05:50:24;9.40;70.80
59505;DHT22;45321;53.200;5.814;2024-03-29T05:52:53;9.40;70.60
59505;DHT22;45321;53.200;5.814;2024-03-29T05:55:19;9.40;70.70
59505;DHT22;45321;53.200;5.814;2024-03-29T05:57:45;9.40;70.80
59505;DHT22;45321;53.200;5.814;2024-03-29T06:00:12;9.40;70.70
59505;DHT22;45321;53.200;5.814;2024-03-29T06:02:42;9.40;70.70
59505;DHT22;45321;53.200;5.814;2024-03-29T06:05:10;9.40;70.80
59505;DHT22;45321;53.200;5.814;2024-03-29T06:07:36;9.40;70.80
59505;DHT22;45321;53.200;5.814;2024-03-29T06:10:01;9.40;70.70
59505;DHT22;45321;53.200;5.814;2024-03-29T06:12:33;9.40;70.60
59505;DHT22;45321;53.200;5.814;2024-03-29T06:15:00;9.40;70.70
59505;DHT22;45321;53.200;5.814;2024-03-29T06:17:44;9.50;70.70
59505;DHT22;45321;53.200;5.814;2024-03-29T06:20:11;9.50;70.70
59505;DHT22;45321;53.200;5.814;2024-03-29T06:22:37;9.50;70.60
59505;DHT22;45321;53.200;5.814;2024-03-29T06:25:03;9.50;70.70
59505;DHT22;45321;53.200;5.814;2024-03-29T06:27:36;9.60;70.60
59505;DHT22;45321;53.200;5.814;2024-03-29T06:30:03;9.60;70.60
59505;DHT22;45321;53.200;5.814;2024-03-29T06:32:30;9.60;70.60
59505;DHT22;45321;53.200;5.814;2024-03-29T06:34:55;9.60;70.60
59505;DHT22;45321;53.200;5.814;2024-03-29T06:37:21;9.70;70.60
59505;DHT22;45321;53.200;5.814;2024-03-29T06:39:50;9.70;70.60
59505;DHT22;45321;53.200;5.814;2024-03-29T06:42:17;9.70;70.70
59505;DHT22;45321;53.200;5.814;2024-03-29T06:44:43;9.70;70.80
59505;DHT22;45321;53.200;5.814;2024-03-29T06:47:08;9.80;70.90
59505;DHT22;45321;53.200;5.814;2024-03-29T06:49:35;9.80;71.00
59505;DHT22;45321;53.200;5.814;2024-03-29T06:52:01;9.80;71.20
59505;DHT22;45321;53.200;5.814;2024-03-29T06:54:27;9.80;71.20
59505;DHT22;45321;53.200;5.814;2024-03-29T06:56:54;9.80;71.20
59505;DHT22;45321;53.200;5.814;2024-03-29T06:59:20;9.80;71.30
59505;DHT22;45321;53.200;5.814;2024-03-29T07:01:45;9.80;71.40
59505;DHT22;45321;53.200;5.814;2024-03-29T07:04:13;9.80;71.40
59505;DHT22;45321;53.200;5.814;2024-03-29T07:06:39;9.90;71.50
59505;DHT22;45321;53.200;5.814;2024-03-29T07:09:07;9.90;71.50
59505;DHT22;45321;53.200;5.814;2024-03-29T07:11:35;9.90;71.50
59505;DHT22;45321;53.200;5.814;2024-03-29T07:14:01;9.90;71.50
59505;DHT22;45321;53.200;5.814;2024-03-29T07:16:26;10.00;71.60
59505;DHT22;45321;53.200;5.814;2024-03-29T07:18:52;10.00;71.60
59505;DHT22;45321;53.200;5.814;2024-03-29T07:21:18;10.00;71.80
59505;DHT22;45321;53.200;5.814;2024-03-29T07:23:44;10.00;71.80
59505;DHT22;45321;53.200;5.814;2024-03-29T07:26:09;10.10;71.80
59505;DHT22;45321;53.200;5.814;2024-03-29T07:28:37;10.10;72.00
59505;DHT22;45321;53.200;5.814;2024-03-29T07:31:07;10.20;72.10
59505;DHT22;45321;53.200;5.814;2024-03-29T07:33:33;10.10;72.10
59505;DHT22;45321;53.200;5.814;2024-03-29T07:35:59;10.10;72.20
59505;DHT22;45321;53.200;5.814;2024-03-29T07:38:24;10.20;72.20
59505;DHT22;45321;53.200;5.814;2024-03-29T07:40:51;10.20;72.20
59505;DHT22;45321;53.200;5.814;2024-03-29T07:43:18;10.20;72.40
59505;DHT22;45321;53.200;5.814;2024-03-29T07:45:44;10.20;72.50
59505;DHT22;45321;53.200;5.814;2024-03-29T07:48:17;10.20;72.60
59505;DHT22;45321;53.200;5.814;2024-03-29T07:50:45;10.20;72.80
59505;DHT22;45321;53.200;5.814;2024-03-29T07:53:11;10.20;72.90
59505;DHT22;45321;53.200;5.814;2024-03-29T07:55:39;10.20;73.10
59505;DHT22;45321;53.200;5.814;2024-03-29T07:58:05;10.20;73.30
59505;DHT22;45321;53.200;5.814;2024-03-29T08:00:32;10.20;73.40
59505;DHT22;45321;53.200;5.814;2024-03-29T08:02:58;10.20;73.50
59505;DHT22;45321;53.200;5.814;2024-03-29T08:05:24;10.30;73.50
59505;DHT22;45321;53.200;5.814;2024-03-29T08:07:50;10.30;73.50
59505;DHT22;45321;53.200;5.814;2024-03-29T08:10:15;10.30;73.60
59505;DHT22;45321;53.200;5.814;2024-03-29T08:12:42;10.40;73.50
59505;DHT22;45321;53.200;5.814;2024-03-29T08:15:07;10.60;73.50
59505;DHT22;45321;53.200;5.814;2024-03-29T08:17:36;10.80;73.30
59505;DHT22;45321;53.200;5.814;2024-03-29T08:20:03;11.00;72.60
59505;DHT22;45321;53.200;5.814;2024-03-29T08:22:29;11.10;71.60
59505;DHT22;45321;53.200;5.814;2024-03-29T08:24:57;11.20;71.20
59505;DHT22;45321;53.200;5.814;2024-03-29T08:27:23;11.20;71.30
59505;DHT22;45321;53.200;5.814;2024-03-29T08:29:49;11.30;71.60
59505;DHT22;45321;53.200;5.814;2024-03-29T08:32:16;11.30;70.90
59505;DHT22;45321;53.200;5.814;2024-03-29T08:34:41;11.40;70.60
59505;DHT22;45321;53.200;5.814;2024-03-29T08:37:07;11.30;70.20
59505;DHT22;45321;53.200;5.814;2024-03-29T08:39:33;11.40;70.40
59505;DHT22;45321;53.200;5.814;2024-03-29T08:41:59;11.50;70.20
59505;DHT22;45321;53.200;5.814;2024-03-29T08:44:30;11.60;70.00
59505;DHT22;45321;53.200;5.814;2024-03-29T08:46:56;11.70;70.20
59505;DHT22;45321;53.200;5.814;2024-03-29T08:49:24;11.70;69.60
59505;DHT22;45321;53.200;5.814;2024-03-29T08:51:50;11.70;69.80
59505;DHT22;45321;53.200;5.814;2024-03-29T08:54:15;11.80;69.50
59505;DHT22;45321;53.200;5.814;2024-03-29T08:56:41;11.80;69.60
59505;DHT22;45321;53.200;5.814;2024-03-29T08:59:07;11.70;69.60
59505;DHT22;45321;53.200;5.814;2024-03-29T09:01:37;11.80;69.60
59505;DHT22;45321;53.200;5.814;2024-03-29T09:04:04;11.80;69.50
59505;DHT22;45321;53.200;5.814;2024-03-29T09:06:32;11.90;69.60
59505;DHT22;45321;53.200;5.814;2024-03-29T09:08:58;12.00;69.80
59505;DHT22;45321;53.200;5.814;2024-03-29T09:11:24;12.10;68.20
59505;DHT22;45321;53.200;5.814;2024-03-29T09:13:50;12.20;68.20
59505;DHT22;45321;53.200;5.814;2024-03-29T09:16:16;12.20;67.70
59505;DHT22;45321;53.200;5.814;2024-03-29T09:18:41;12.30;67.80
59505;DHT22;45321;53.200;5.814;2024-03-29T09:21:07;12.30;68.10
59505;DHT22;45321;53.200;5.814;2024-03-29T09:23:34;12.30;67.80
59505;DHT22;45321;53.200;5.814;2024-03-29T09:26:00;12.30;67.40
59505;DHT22;45321;53.200;5.814;2024-03-29T09:28:29;12.30;67.80
59505;DHT22;45321;53.200;5.814;2024-03-29T09:30:58;12.30;68.30
59505;DHT22;45321;53.200;5.814;2024-03-29T09:33:24;12.30;68.50
59505;DHT22;45321;53.200;5.814;2024-03-29T09:35:50;12.30;68.50
59505;DHT22;45321;53.200;5.814;2024-03-29T09:38:16;12.40;68.70
59505;DHT22;45321;53.200;5.814;2024-03-29T09:40:42;12.50;68.80
59505;DHT22;45321;53.200;5.814;2024-03-29T09:43:10;12.80;68.50
59505;DHT22;45321;53.200;5.814;2024-03-29T09:45:36;12.80;68.30
59505;DHT22;45321;53.200;5.814;2024-03-29T09:48:08;12.80;68.10
59505;DHT22;45321;53.200;5.814;2024-03-29T09:50:37;12.70;68.10
59505;DHT22;45321;53.200;5.814;2024-03-29T09:53:06;12.70;68.20
59505;DHT22;45321;53.200;5.814;2024-03-29T09:55:35;12.60;68.30
59505;DHT22;45321;53.200;5.814;2024-03-29T09:58:01;12.50;68.40
59505;DHT22;45321;53.200;5.814;2024-03-29T10:00:28;12.40;68.90
59505;DHT22;45321;53.200;5.814;2024-03-29T10:02:55;12.40;69.30
59505;DHT22;45321;53.200;5.814;2024-03-29T10:05:26;12.40;69.50
59505;DHT22;45321;53.200;5.814;2024-03-29T10:07:53;12.30;69.80
59505;DHT22;45321;53.200;5.814;2024-03-29T10:10:19;12.40;70.20
59505;DHT22;45321;53.200;5.814;2024-03-29T10:12:45;12.30;70.70
59505;DHT22;45321;53.200;5.814;2024-03-29T10:15:10;12.30;71.00
59505;DHT22;45321;53.200;5.814;2024-03-29T10:17:47;12.20;71.20
59505;DHT22;45321;53.200;5.814;2024-03-29T10:20:19;12.20;71.20
59505;DHT22;45321;53.200;5.814;2024-03-29T10:22:46;12.20;71.30
59505;DHT22;45321;53.200;5.814;2024-03-29T10:25:15;12.30;70.70
59505;DHT22;45321;53.200;5.814;2024-03-29T10:27:41;12.30;70.60
59505;DHT22;45321;53.200;5.814;2024-03-29T10:30:08;12.60;70.20
59505;DHT22;45321;53.200;5.814;2024-03-29T10:32:37;12.70;69.00
59505;DHT22;45321;53.200;5.814;2024-03-29T10:35:03;12.80;68.80
59505;DHT22;45321;53.200;5.814;2024-03-29T10:37:29;13.00;68.90
59505;DHT22;45321;53.200;5.814;2024-03-29T10:39:58;13.00;68.40
59505;DHT22;45321;53.200;5.814;2024-03-29T10:42:24;12.90;68.10
59505;DHT22;45321;53.200;5.814;2024-03-29T10:44:51;12.80;67.90
59505;DHT22;45321;53.200;5.814;2024-03-29T10:47:19;12.80;68.00
59505;DHT22;45321;53.200;5.814;2024-03-29T10:49:50;12.80;68.40
59505;DHT22;45321;53.200;5.814;2024-03-29T10:52:21;12.70;68.30
59505;DHT22;45321;53.200;5.814;2024-03-29T10:54:47;12.80;67.90
59505;DHT22;45321;53.200;5.814;2024-03-29T10:57:23;12.90;67.00
59505;DHT22;45321;53.200;5.814;2024-03-29T11:05:02;13.50;66.20
59505;DHT22;45321;53.200;5.814;2024-03-29T11:07:34;13.80;66.10
59505;DHT22;45321;53.200;5.814;2024-03-29T11:10:01;13.90;65.30
59505;DHT22;45321;53.200;5.814;2024-03-29T11:12:30;13.80;64.10
59505;DHT22;45321;53.200;5.814;2024-03-29T11:15:03;13.80;64.90
59505;DHT22;45321;53.200;5.814;2024-03-29T11:17:30;14.00;64.60
59505;DHT22;45321;53.200;5.814;2024-03-29T11:19:58;14.30;64.50
59505;DHT22;45321;53.200;5.814;2024-03-29T11:22:25;14.20;63.30
59505;DHT22;45321;53.200;5.814;2024-03-29T11:24:51;14.20;63.60
59505;DHT22;45321;53.200;5.814;2024-03-29T11:27:17;14.10;63.60
59505;DHT22;45321;53.200;5.814;2024-03-29T11:29:48;14.00;63.90
59505;DHT22;45321;53.200;5.814;2024-03-29T11:32:15;14.00;64.30
59505;DHT22;45321;53.200;5.814;2024-03-29T11:34:44;14.00;64.50
59505;DHT22;45321;53.200;5.814;2024-03-29T11:37:11;14.00;64.70
59505;DHT22;45321;53.200;5.814;2024-03-29T11:39:38;14.00;64.60
59505;DHT22;45321;53.200;5.814;2024-03-29T11:42:04;13.90;64.10
59505;DHT22;45321;53.200;5.814;2024-03-29T11:44:30;13.80;62.90
59505;DHT22;45321;53.200;5.814;2024-03-29T11:46:58;13.70;63.20
59505;DHT22;45321;53.200;5.814;2024-03-29T11:49:25;13.60;63.50
59505;DHT22;45321;53.200;5.814;2024-03-29T11:51:51;13.40;64.10
59505;DHT22;45321;53.200;5.814;2024-03-29T11:54:26;13.40;64.50
59505;DHT22;45321;53.200;5.814;2024-03-29T11:56:52;13.50;64.40
59505;DHT22;45321;53.200;5.814;2024-03-29T11:59:18;13.70;64.80
59505;DHT22;45321;53.200;5.814;2024-03-29T12:01:46;13.90;64.40
59505;DHT22;45321;53.200;5.814;2024-03-29T12:04:22;14.10;63.30
59505;DHT22;45321;53.200;5.814;2024-03-29T12:06:49;14.20;63.70
59505;DHT22;45321;53.200;5.814;2024-03-29T12:09:15;14.30;62.50
59505;DHT22;45321;53.200;5.814;2024-03-29T12:11:43;14.30;63.10
59505;DHT22;45321;53.200;5.814;2024-03-29T12:14:15;14.30;63.40
59505;DHT22;45321;53.200;5.814;2024-03-29T12:16:46;14.40;62.60
59505;DHT22;45321;53.200;5.814;2024-03-29T12:19:25;14.30;62.50
59505;DHT22;45321;53.200;5.814;2024-03-29T12:21:53;14.50;62.80
59505;DHT22;45321;53.200;5.814;2024-03-29T12:24:19;14.60;61.90
59505;DHT22;45321;53.200;5.814;2024-03-29T12:26:48;14.70;61.80
59505;DHT22;45321;53.200;5.814;2024-03-29T12:29:16;14.70;61.80
59505;DHT22;45321;53.200;5.814;2024-03-29T12:31:42;14.80;61.40
59505;DHT22;45321;53.200;5.814;2024-03-29T12:34:08;14.80;61.70
59505;DHT22;45321;53.200;5.814;2024-03-29T12:36:33;14.70;61.10
59505;DHT22;45321;53.200;5.814;2024-03-29T12:38:59;14.70;60.70
59505;DHT22;45321;53.200;5.814;2024-03-29T12:41:31;14.80;61.70
59505;DHT22;45321;53.200;5.814;2024-03-29T12:43:58;14.80;61.30
59505;DHT22;45321;53.200;5.814;2024-03-29T12:46:25;14.80;61.60
59505;DHT22;45321;53.200;5.814;2024-03-29T12:49:02;14.70;61.60
59505;DHT22;45321;53.200;5.814;2024-03-29T12:51:28;14.60;61.60
59505;DHT22;45321;53.200;5.814;2024-03-29T12:54:01;14.60;62.10
59505;DHT22;45321;53.200;5.814;2024-03-29T12:56:30;14.60;62.40
59505;DHT22;45321;53.200;5.814;2024-03-29T12:58:56;14.60;63.00
59505;DHT22;45321;53.200;5.814;2024-03-29T13:01:21;14.70;62.30
59505;DHT22;45321;53.200;5.814;2024-03-29T13:03:47;14.80;62.30
59505;DHT22;45321;53.200;5.814;2024-03-29T13:06:13;15.00;62.10
59505;DHT22;45321;53.200;5.814;2024-03-29T13:08:39;15.30;61.80
59505;DHT22;45321;53.200;5.814;2024-03-29T13:11:05;15.70;60.40
59505;DHT22;45321;53.200;5.814;2024-03-29T13:13:31;16.20;59.40
59505;DHT22;45321;53.200;5.814;2024-03-29T13:15:57;16.50;58.40
59505;DHT22;45321;53.200;5.814;2024-03-29T13:18:22;16.70;57.60
59505;DHT22;45321;53.200;5.814;2024-03-29T13:20:48;16.80;57.50
59505;DHT22;45321;53.200;5.814;2024-03-29T13:23:14;17.20;56.70
59505;DHT22;45321;53.200;5.814;2024-03-29T13:25:40;17.60;55.70
59505;DHT22;45321;53.200;5.814;2024-03-29T13:28:06;18.00;54.00
59505;DHT22;45321;53.200;5.814;2024-03-29T13:30:32;18.30;52.80
59505;DHT22;45321;53.200;5.814;2024-03-29T13:32:58;18.30;52.60
59505;DHT22;45321;53.200;5.814;2024-03-29T13:35:24;18.30;51.50
59505;DHT22;45321;53.200;5.814;2024-03-29T13:37:51;18.20;51.60
59505;DHT22;45321;53.200;5.814;2024-03-29T13:40:22;18.20;52.30
59505;DHT22;45321;53.200;5.814;2024-03-29T13:42:49;18.00;52.30
59505;DHT22;45321;53.200;5.814;2024-03-29T13:45:15;17.70;51.90
59505;DHT22;45321;53.200;5.814;2024-03-29T13:47:42;17.70;52.30
59505;DHT22;45321;53.200;5.814;2024-03-29T13:50:09;17.70;52.10
59505;DHT22;45321;53.200;5.814;2024-03-29T13:52:36;17.30;52.70
59505;DHT22;45321;53.200;5.814;2024-03-29T13:55:03;17.60;52.40
59505;DHT22;45321;53.200;5.814;2024-03-29T13:57:29;17.70;52.70
59505;DHT22;45321;53.200;5.814;2024-03-29T13:59:56;17.80;52.90
59505;DHT22;45321;53.200;5.814;2024-03-29T14:02:22;18.40;52.20
59505;DHT22;45321;53.200;5.814;2024-03-29T14:04:49;18.30;51.20
59505;DHT22;45321;53.200;5.814;2024-03-29T14:07:16;18.00;51.70
59505;DHT22;45321;53.200;5.814;2024-03-29T14:09:44;18.10;52.80
59505;DHT22;45321;53.200;5.814;2024-03-29T14:12:10;18.50;51.60
59505;DHT22;45321;53.200;5.814;2024-03-29T14:14:36;18.70;50.60
59505;DHT22;45321;53.200;5.814;2024-03-29T14:17:03;19.20;50.70
59505;DHT22;45321;53.200;5.814;2024-03-29T14:19:38;20.10;48.30
59505;DHT22;45321;53.200;5.814;2024-03-29T14:22:04;20.40;47.00
59505;DHT22;45321;53.200;5.814;2024-03-29T14:24:31;20.50;47.50
59505;DHT22;45321;53.200;5.814;2024-03-29T14:27:01;20.20;46.00
59505;DHT22;45321;53.200;5.814;2024-03-29T14:29:26;20.10;46.70
59505;DHT22;45321;53.200;5.814;2024-03-29T14:31:52;20.30;46.20
59505;DHT22;45321;53.200;5.814;2024-03-29T14:34:20;20.80;46.20
59505;DHT22;45321;53.200;5.814;2024-03-29T14:36:47;20.70;44.40
59505;DHT22;45321;53.200;5.814;2024-03-29T14:39:13;20.40;44.40
59505;DHT22;45321;53.200;5.814;2024-03-29T14:41:39;20.20;45.30
59505;DHT22;45321;53.200;5.814;2024-03-29T14:44:06;20.20;45.80
59505;DHT22;45321;53.200;5.814;2024-03-29T14:46:33;20.40;45.60
59505;DHT22;45321;53.200;5.814;2024-03-29T14:48:59;20.40;44.40
59505;DHT22;45321;53.200;5.814;2024-03-29T14:51:26;19.80;44.30
59505;DHT22;45321;53.200;5.814;2024-03-29T14:53:53;19.10;46.40
59505;DHT22;45321;53.200;5.814;2024-03-29T14:56:19;18.50;48.90
59505;DHT22;45321;53.200;5.814;2024-03-29T14:58:45;18.70;49.50
59505;DHT22;45321;53.200;5.814;2024-03-29T15:01:12;18.60;48.80
59505;DHT22;45321;53.200;5.814;2024-03-29T15:03:37;18.10;48.80
59505;DHT22;45321;53.200;5.814;2024-03-29T15:06:04;17.70;50.00
59505;DHT22;45321;53.200;5.814;2024-03-29T15:08:30;17.50;51.10
59505;DHT22;45321;53.200;5.814;2024-03-29T15:10:59;18.00;51.00
59505;DHT22;45321;53.200;5.814;2024-03-29T15:13:25;18.60;50.10
59505;DHT22;45321;53.200;5.814;2024-03-29T15:15:57;19.00;48.60
59505;DHT22;45321;53.200;5.814;2024-03-29T15:18:24;19.60;48.20
59505;DHT22;45321;53.200;5.814;2024-03-29T15:21:00;19.80;46.30
59505;DHT22;45321;53.200;5.814;2024-03-29T15:23:28;19.70;46.20
59505;DHT22;45321;53.200;5.814;2024-03-29T15:25:55;20.00;45.90
59505;DHT22;45321;53.200;5.814;2024-03-29T15:28:22;20.40;45.40
59505;DHT22;45321;53.200;5.814;2024-03-29T15:33:35;21.60;43.20
59505;DHT22;45321;53.200;5.814;2024-03-29T15:36:01;21.90;42.40
59505;DHT22;45321;53.200;5.814;2024-03-29T15:38:27;22.20;40.90
59505;DHT22;45321;53.200;5.814;2024-03-29T15:40:55;22.70;41.50
59505;DHT22;45321;53.200;5.814;2024-03-29T15:43:21;23.00;40.00